createdAt,value
2017-11-27T00:02:21.438Z,7.73
2017-11-27T00:04:51.902Z,8.00
2017-11-27T00:07:22.584Z,7.37
2017-11-27T00:09:53.018Z,6.70
2017-11-27T00:12:23.862Z,8.37
2017-11-27T00:14:54.442Z,8.50
2017-11-27T00:17:24.921Z,8.00
2017-11-27T00:19:55.338Z,7.37
2017-11-27T00:22:34.691Z,9.07
2017-11-27T00:25:05.888Z,7.80
2017-11-27T00:27:36.368Z,8.20
2017-11-27T00:30:06.851Z,9.10
2017-11-27T00:32:37.471Z,8.83
2017-11-27T00:35:08.446Z,9.00
2017-11-27T00:37:39.312Z,8.73
2017-11-27T00:40:16.887Z,7.47
2017-11-27T00:42:47.599Z,8.27
2017-11-27T00:45:18.236Z,10.23
2017-11-27T00:47:51.259Z,8.17
2017-11-27T00:50:21.816Z,10.20
2017-11-27T00:52:53.837Z,8.57
2017-11-27T00:55:33.697Z,9.43
2017-11-27T00:58:04.432Z,9.00
2017-11-27T01:00:34.981Z,9.17
2017-11-27T01:03:05.863Z,10.10
2017-11-27T01:05:36.705Z,9.90
2017-11-27T01:08:15.166Z,9.77
2017-11-27T01:10:47.364Z,8.83
2017-11-27T01:13:18.768Z,11.23
2017-11-27T01:15:49.323Z,9.40
2017-11-27T01:18:20.272Z,9.07
2017-11-27T01:20:51.621Z,10.03
2017-11-27T01:23:22.319Z,9.90
2017-11-27T01:25:53.356Z,9.90
2017-11-27T01:28:24.362Z,10.63
2017-11-27T01:30:55.032Z,8.67
2017-11-27T01:33:26.755Z,10.03
2017-11-27T01:35:57.318Z,10.47
2017-11-27T01:38:28.258Z,8.30
2017-11-27T01:40:59.239Z,8.53
2017-11-27T01:43:32.612Z,9.67
2017-11-27T01:46:03.984Z,9.00
2017-11-27T01:48:34.898Z,8.40
2017-11-27T01:51:08.706Z,8.60
2017-11-27T01:53:40.256Z,8.83
2017-11-27T01:56:10.932Z,10.80
2017-11-27T01:58:41.604Z,9.33
2017-11-27T02:01:13.145Z,10.43
2017-11-27T02:03:44.730Z,9.70
2017-11-27T02:06:15.323Z,9.50
2017-11-27T02:08:46.156Z,9.13
2017-11-27T02:11:16.643Z,9.63
2017-11-27T02:13:47.523Z,9.83
2017-11-27T02:16:17.922Z,8.63
2017-11-27T02:18:55.873Z,10.33
2017-11-27T02:21:30.826Z,9.27
2017-11-27T02:43:12.468Z,8.10
2017-11-27T02:49:19.383Z,8.07
2017-11-27T02:51:51.750Z,8.73
2017-11-27T02:54:22.602Z,8.57
2017-11-27T02:56:53.007Z,8.30
2017-11-27T02:59:24.031Z,9.10
2017-11-27T03:01:54.607Z,9.17
2017-11-27T03:04:25.410Z,8.23
2017-11-27T03:06:56.060Z,9.37
2017-11-27T03:09:26.512Z,8.40
2017-11-27T03:12:06.358Z,9.20
2017-11-27T03:14:37.810Z,9.60
2017-11-27T03:17:08.534Z,8.87
2017-11-27T03:19:39.344Z,7.27
2017-11-27T03:22:09.666Z,8.20
2017-11-27T03:24:40.022Z,7.80
2017-11-27T03:27:11.289Z,7.80
2017-11-27T03:29:41.874Z,7.60
2017-11-27T03:32:12.457Z,8.87
2017-11-27T03:34:43.130Z,8.30
2017-11-27T03:37:13.617Z,7.67
2017-11-27T03:39:44.287Z,8.10
2017-11-27T03:42:15.745Z,7.40
2017-11-27T03:44:46.088Z,7.67
2017-11-27T03:47:17.170Z,8.60
2017-11-27T03:49:47.973Z,9.00
2017-11-27T03:52:19.312Z,9.73
2017-11-27T03:54:50.038Z,9.47
2017-11-27T03:57:20.703Z,9.20
2017-11-27T03:59:51.158Z,9.10
2017-11-27T04:02:22.922Z,8.90
2017-11-27T04:04:53.463Z,8.90
2017-11-27T04:07:23.993Z,9.70
2017-11-27T04:09:54.571Z,9.00
2017-11-27T04:12:24.982Z,10.67
2017-11-27T04:14:55.671Z,11.67
2017-11-27T04:17:26.474Z,11.30
2017-11-27T04:19:57.342Z,10.50
2017-11-27T04:22:27.868Z,10.20
2017-11-27T04:24:58.493Z,10.47
2017-11-27T04:27:29.005Z,12.60
2017-11-27T04:29:59.459Z,11.63
2017-11-27T04:32:29.895Z,11.40
2017-11-27T04:35:01.529Z,11.73
2017-11-27T04:37:32.029Z,11.93
2017-11-27T04:40:02.463Z,11.17
2017-11-27T04:42:32.970Z,12.20
2017-11-27T04:45:05.936Z,10.50
2017-11-27T04:47:36.640Z,11.30
2017-11-27T04:50:07.092Z,11.40
2017-11-27T04:52:37.678Z,12.27
2017-11-27T04:55:08.157Z,10.50
2017-11-27T04:57:38.544Z,11.93
2017-11-27T05:00:09.554Z,11.43
2017-11-27T05:02:40.464Z,10.40
2017-11-27T05:05:10.983Z,9.47
2017-11-27T05:07:41.470Z,10.90
2017-11-27T05:10:12.628Z,11.20
2017-11-27T05:12:43.107Z,10.83
2017-11-27T05:15:23.044Z,11.03
2017-11-27T05:17:58.545Z,10.50
2017-11-27T05:20:29.698Z,11.27
2017-11-27T05:23:01.002Z,11.93
2017-11-27T05:25:31.605Z,11.40
2017-11-27T05:28:01.786Z,12.00
2017-11-27T05:30:32.556Z,10.40
2017-11-27T05:33:04.096Z,10.43
2017-11-27T05:35:41.037Z,10.20
2017-11-27T05:38:16.450Z,9.57
2017-11-27T05:40:47.070Z,10.20
2017-11-27T05:43:17.294Z,10.90
2017-11-27T05:45:47.729Z,9.90
2017-11-27T05:48:18.294Z,10.37
2017-11-27T05:50:48.942Z,10.20
2017-11-27T05:53:19.334Z,10.17
2017-11-27T05:55:49.845Z,9.43
2017-11-27T05:58:20.204Z,10.63
2017-11-27T06:00:50.587Z,11.47
2017-11-27T06:03:21.715Z,10.37
2017-11-27T06:05:52.088Z,11.20
2017-11-27T06:08:22.375Z,10.43
2017-11-27T06:10:52.684Z,10.23
2017-11-27T06:13:26.081Z,10.53
2017-11-27T06:15:56.521Z,9.83
2017-11-27T06:18:27.170Z,8.77
2017-11-27T06:20:57.528Z,9.67
2017-11-27T06:23:27.973Z,9.67
2017-11-27T06:25:58.389Z,9.20
2017-11-27T06:28:28.651Z,9.40
2017-11-27T06:31:00.037Z,9.13
2017-11-27T06:33:30.446Z,9.03
2017-11-27T06:36:00.981Z,7.37
2017-11-27T06:38:31.760Z,8.63
2017-11-27T06:41:02.370Z,8.20
2017-11-27T06:43:33.093Z,8.30
2017-11-27T06:46:03.479Z,7.57
2017-11-27T06:48:34.672Z,7.40
2017-11-27T06:51:04.487Z,7.70
2017-11-27T06:53:34.778Z,7.37
2017-11-27T06:56:04.966Z,6.70
2017-11-27T06:58:35.265Z,7.50
2017-11-27T07:01:05.450Z,6.17
2017-11-27T07:03:35.957Z,6.63
2017-11-27T07:06:07.111Z,6.73
2017-11-27T07:08:38.497Z,6.47
2017-11-27T07:11:08.784Z,6.30
2017-11-27T07:13:39.847Z,5.57
2017-11-27T07:16:10.149Z,6.10
2017-11-27T07:18:48.385Z,5.73
2017-11-27T07:21:20.981Z,5.60
2017-11-27T07:23:51.528Z,5.87
2017-11-27T07:26:22.142Z,5.67
2017-11-27T07:28:52.586Z,5.50
2017-11-27T07:31:23.014Z,5.30
2017-11-27T07:33:53.551Z,4.60
2017-11-27T07:36:24.154Z,4.70
2017-11-27T07:40:01.138Z,4.40
2017-11-27T07:42:31.340Z,5.13
2017-11-27T07:45:01.555Z,4.70
2017-11-27T07:47:32.637Z,4.50
2017-11-27T07:50:02.980Z,4.20
2017-11-27T07:52:33.525Z,4.70
2017-11-27T07:55:03.831Z,3.77
2017-11-27T07:57:34.117Z,4.80
2017-11-27T08:00:04.775Z,4.27
2017-11-27T08:02:35.389Z,4.37
2017-11-27T08:05:05.741Z,3.80
2017-11-27T08:07:36.078Z,3.60
2017-11-27T08:10:06.369Z,4.10
2017-11-27T08:12:36.773Z,3.63
2017-11-27T08:15:07.177Z,3.97
2017-11-27T08:17:37.574Z,3.43
2017-11-27T08:20:16.661Z,3.90
2017-11-27T08:22:49.130Z,3.90
2017-11-27T08:25:20.373Z,4.43
2017-11-27T08:27:50.704Z,3.50
2017-11-27T08:30:21.890Z,4.00
2017-11-27T08:32:53.658Z,4.33
2017-11-27T08:35:24.057Z,3.50
2017-11-27T08:37:54.422Z,4.57
2017-11-27T08:40:25.482Z,4.00
2017-11-27T08:42:56.760Z,4.30
2017-11-27T08:45:27.253Z,4.63
2017-11-27T08:47:58.524Z,5.27
2017-11-27T08:50:29.740Z,4.67
2017-11-27T08:53:00.331Z,4.97
2017-11-27T08:55:30.683Z,5.07
2017-11-27T08:58:01.013Z,4.63
2017-11-27T09:00:44.837Z,5.60
2017-11-27T09:03:15.496Z,5.90
2017-11-27T09:05:46.641Z,5.80
2017-11-27T09:08:17.197Z,5.80
2017-11-27T09:10:47.664Z,5.87
2017-11-27T09:13:18.298Z,6.07
2017-11-27T09:15:48.818Z,5.40
2017-11-27T09:18:20.250Z,6.13
2017-11-27T09:20:50.740Z,5.90
2017-11-27T09:23:26.879Z,5.43
2017-11-27T09:25:57.418Z,6.47
2017-11-27T09:28:28.051Z,5.80
2017-11-27T09:30:58.549Z,6.80
2017-11-27T09:33:29.921Z,6.17
2017-11-27T09:36:00.321Z,6.83
2017-11-27T09:38:31.482Z,7.17
2017-11-27T09:41:02.042Z,7.10
2017-11-27T09:43:32.349Z,6.43
2017-11-27T09:46:02.909Z,6.60
2017-11-27T09:48:33.261Z,7.43
2017-11-27T09:51:03.704Z,6.90
2017-11-27T09:53:34.440Z,7.60
2017-11-27T09:56:05.641Z,7.97
2017-11-27T09:58:36.037Z,6.40
2017-11-27T10:01:06.320Z,6.50
2017-11-27T10:03:36.640Z,5.10
2017-11-27T10:06:07.220Z,5.37
2017-11-27T10:08:37.631Z,7.73
2017-11-27T10:11:08.606Z,6.13
2017-11-27T10:13:39.235Z,6.20
2017-11-27T10:16:10.446Z,5.37
2017-11-27T10:18:40.897Z,5.63
2017-11-27T10:21:11.315Z,5.97
2017-11-27T10:23:49.198Z,5.37
2017-11-27T10:26:20.654Z,5.50
2017-11-27T10:28:51.258Z,4.63
2017-11-27T10:31:21.883Z,5.00
2017-11-27T10:33:52.214Z,5.87
2017-11-27T10:36:22.636Z,5.40
2017-11-27T10:38:53.291Z,4.60
2017-11-27T10:41:26.083Z,5.17
2017-11-27T10:43:57.253Z,4.63
2017-11-27T10:46:27.521Z,6.00
2017-11-27T10:48:58.593Z,4.27
2017-11-27T10:51:29.183Z,5.30
2017-11-27T10:54:04.266Z,5.20
2017-11-27T10:56:34.755Z,4.30
2017-11-27T10:59:06.032Z,5.57
2017-11-27T11:01:36.777Z,6.70
2017-11-27T11:04:07.150Z,6.20
2017-11-27T11:06:37.734Z,4.30
2017-11-27T11:09:08.954Z,4.87
2017-11-27T11:11:39.371Z,4.63
2017-11-27T11:14:10.777Z,4.57
2017-11-27T11:16:41.625Z,6.07
2017-11-27T11:19:12.946Z,5.57
2017-11-27T11:21:43.576Z,4.27
2017-11-27T11:24:14.310Z,5.10
2017-11-27T11:26:52.491Z,4.50
2017-11-27T11:29:24.829Z,5.07
2017-11-27T11:31:55.577Z,4.67
2017-11-27T11:34:26.175Z,4.37
2017-11-27T11:36:56.594Z,3.90
2017-11-27T11:39:27.727Z,5.23
2017-11-27T11:41:58.322Z,4.40
2017-11-27T11:44:29.365Z,4.87
2017-11-27T11:46:59.847Z,4.37
2017-11-27T11:49:30.177Z,4.30
2017-11-27T11:52:02.902Z,3.93
2017-11-27T11:54:34.019Z,4.57
2017-11-27T11:57:04.576Z,4.57
2017-11-27T11:59:34.929Z,4.10
2017-11-27T12:02:05.399Z,4.37
2017-11-27T12:04:35.919Z,4.27
2017-11-27T12:07:06.300Z,4.00
2017-11-27T12:09:36.954Z,4.10
2017-11-27T12:12:07.411Z,4.40
2017-11-27T12:14:37.835Z,3.70
2017-11-27T12:17:09.703Z,4.80
2017-11-27T12:19:39.976Z,4.83
2017-11-27T12:22:10.490Z,4.50
2017-11-27T12:24:41.059Z,5.00
2017-11-27T12:27:11.442Z,5.13
2017-11-27T12:29:42.145Z,4.77
2017-11-27T12:32:12.609Z,4.87
2017-11-27T12:34:43.401Z,5.20
2017-11-27T12:37:13.693Z,5.13
2017-11-27T12:39:44.437Z,14.47
2017-11-27T12:42:15.858Z,5.60
2017-11-27T12:44:47.024Z,6.30
2017-11-27T12:47:17.513Z,7.13
2017-11-27T12:49:48.743Z,6.40
2017-11-27T12:52:19.552Z,7.07
2017-11-27T12:54:50.115Z,7.10
2017-11-27T12:57:21.596Z,5.70
2017-11-27T12:59:52.396Z,5.87
2017-11-27T13:02:23.887Z,5.87
2017-11-27T13:04:54.384Z,6.60
2017-11-27T13:07:26.291Z,6.20
2017-11-27T13:09:57.016Z,5.77
2017-11-27T13:12:42.689Z,6.47
2017-11-27T13:15:15.067Z,6.07
2017-11-27T13:17:46.350Z,5.40
2017-11-27T13:20:16.977Z,5.47
2017-11-27T13:22:47.611Z,5.60
2017-11-27T13:25:20.795Z,5.20
2017-11-27T13:27:53.388Z,4.70
2017-11-27T13:30:37.830Z,5.50
2017-11-27T13:33:11.211Z,5.40
2017-11-27T13:38:24.050Z,5.20
2017-11-27T13:40:59.287Z,5.63
2017-11-27T13:43:32.161Z,5.90
2017-11-27T13:46:05.109Z,5.90
2017-11-27T13:48:36.757Z,6.20
2017-11-27T13:51:08.254Z,5.30
2017-11-27T13:53:39.846Z,5.60
2017-11-27T13:56:12.548Z,5.50
2017-11-27T13:58:47.535Z,5.60
2017-11-27T14:02:04.452Z,4.97
2017-11-27T14:08:11.624Z,5.40
2017-11-27T14:10:51.119Z,5.43
2017-11-27T14:15:09.781Z,5.20
2017-11-27T14:17:41.561Z,5.47
2017-11-27T14:20:19.424Z,4.67
2017-11-27T14:22:55.905Z,4.80
2017-11-27T14:25:30.238Z,5.10
2017-11-27T14:28:03.053Z,5.23
2017-11-27T14:30:34.419Z,4.30
2017-11-27T14:33:06.648Z,4.30
2017-11-27T14:35:39.607Z,4.43
2017-11-27T14:38:12.245Z,4.20
2017-11-27T14:41:56.651Z,4.20
2017-11-27T14:44:29.571Z,4.20
2017-11-27T14:47:01.909Z,4.00
2017-11-27T14:54:31.835Z,4.13
2017-11-27T15:03:39.963Z,4.87
2017-11-27T15:09:59.094Z,4.60
2017-11-27T15:12:49.129Z,4.00
2017-11-27T15:15:35.598Z,4.43
2017-11-27T15:20:23.971Z,4.20
2017-11-27T15:23:05.871Z,3.93
2017-11-27T15:26:13.893Z,4.80
2017-11-27T15:29:41.077Z,4.03
2017-11-27T15:36:23.544Z,4.07
2017-11-27T15:39:51.660Z,4.70
2017-11-27T15:51:55.616Z,4.83
2017-11-27T15:57:11.916Z,4.90
2017-11-27T16:06:59.699Z,5.17
2017-11-27T16:09:50.767Z,6.30
2017-11-27T16:13:30.947Z,5.57
2017-11-27T16:16:10.219Z,5.50
2017-11-27T16:18:48.206Z,5.90
2017-11-27T16:45:48.106Z,6.53
2017-11-27T17:00:19.329Z,5.90
2017-11-27T17:07:18.166Z,7.20
2017-11-27T17:09:52.825Z,6.30
2017-11-27T17:12:40.364Z,6.80
2017-11-27T17:15:36.839Z,7.30
2017-11-27T17:25:29.255Z,8.60
2017-11-27T17:28:03.442Z,7.50
2017-11-27T17:31:02.140Z,9.10
2017-11-27T17:34:10.618Z,8.67
2017-11-27T17:48:45.763Z,7.20
2017-11-27T17:52:18.038Z,4.70
2017-11-27T17:54:49.226Z,3.93
2017-11-27T17:57:45.826Z,3.67
2017-11-27T18:01:02.423Z,3.40
2017-11-27T18:03:49.794Z,3.00
2017-11-27T18:06:27.458Z,3.03
2017-11-27T18:08:59.494Z,2.20
2017-11-27T18:14:21.115Z,2.67
2017-11-27T18:17:30.404Z,2.53
2017-11-27T18:22:21.896Z,2.03
2017-11-27T18:30:56.584Z,1.93
2017-11-27T18:44:02.821Z,1.97
2017-11-27T18:46:38.075Z,2.40
2017-11-27T18:58:56.146Z,2.80
2017-11-27T19:07:04.701Z,2.70
2017-11-27T19:17:13.469Z,2.93
2017-11-27T19:19:45.983Z,3.10
2017-11-27T19:22:18.044Z,3.37
2017-11-27T19:24:49.706Z,3.43
2017-11-27T19:27:22.916Z,4.17
2017-11-27T19:29:55.022Z,4.00
2017-11-27T19:32:26.297Z,4.33
2017-11-27T19:34:59.462Z,4.97
2017-11-27T19:37:31.829Z,4.50
2017-11-27T19:40:03.878Z,5.20
2017-11-27T19:42:52.561Z,4.90
2017-11-27T19:45:24.107Z,4.43
2017-11-27T19:47:57.034Z,4.67
2017-11-27T19:52:55.995Z,3.30
2017-11-27T19:55:27.454Z,3.10
2017-11-27T19:57:58.842Z,3.20
2017-11-27T20:00:30.576Z,3.27
2017-11-27T20:03:03.449Z,3.33
2017-11-27T20:05:36.103Z,3.50
2017-11-27T20:08:07.850Z,3.13
2017-11-27T20:10:39.112Z,3.00
2017-11-27T20:13:18.112Z,3.13
2017-11-27T20:15:49.513Z,2.67
2017-11-27T20:18:22.182Z,2.90
2017-11-27T20:20:53.086Z,2.33
2017-11-27T20:23:24.790Z,2.40
2017-11-27T20:25:58.125Z,2.07
2017-11-27T20:28:30.906Z,2.57
2017-11-27T20:31:12.853Z,2.37
2017-11-27T20:33:50.972Z,2.60
2017-11-27T20:36:22.808Z,2.50
2017-11-27T20:38:54.555Z,2.60
2017-11-27T20:41:34.298Z,3.03
2017-11-27T20:47:24.908Z,3.03
2017-11-27T20:50:01.234Z,2.50
2017-11-27T20:53:26.023Z,3.10
2017-11-27T20:56:01.317Z,2.63
2017-11-27T20:58:34.945Z,3.23
2017-11-27T21:01:09.408Z,3.40
2017-11-27T21:03:44.796Z,2.73
2017-11-27T21:06:20.796Z,3.53
2017-11-27T21:08:58.004Z,3.60
2017-11-27T21:11:33.342Z,3.70
2017-11-27T21:14:07.026Z,4.93
2017-11-27T21:16:42.202Z,3.63
2017-11-27T21:19:16.458Z,3.27
2017-11-27T21:21:51.077Z,3.90
2017-11-27T21:24:24.574Z,3.67
2017-11-27T21:26:59.192Z,4.00
2017-11-27T21:29:34.330Z,3.83
2017-11-27T21:32:13.154Z,3.90
2017-11-27T21:34:49.379Z,4.80
2017-11-27T21:37:24.092Z,4.80
2017-11-27T21:39:59.404Z,5.30
2017-11-27T21:42:33.295Z,4.93
2017-11-27T21:45:23.477Z,4.43
2017-11-27T21:48:06.428Z,4.73
2017-11-27T21:50:40.461Z,4.00
2017-11-27T21:53:24.294Z,4.80
2017-11-27T21:55:58.183Z,4.27
2017-11-27T21:58:31.535Z,4.47
2017-11-27T22:01:06.412Z,4.00
2017-11-27T22:03:39.722Z,2.83
2017-11-27T22:06:13.540Z,2.50
2017-11-27T22:08:45.496Z,2.90
2017-11-27T22:11:16.689Z,2.30
2017-11-27T22:13:48.651Z,2.90
2017-11-27T22:16:20.039Z,2.30
2017-11-27T22:18:52.050Z,2.23
2017-11-27T22:21:24.625Z,2.40
2017-11-27T22:23:56.950Z,2.97
2017-11-27T22:26:29.349Z,2.67
2017-11-27T22:29:03.462Z,3.13
2017-11-27T22:34:22.167Z,2.20
2017-11-27T22:36:58.824Z,1.93
2017-11-27T22:39:31.160Z,2.27
2017-11-27T22:42:02.599Z,2.13
2017-11-27T22:44:38.643Z,2.23
2017-11-27T22:47:09.899Z,1.90
2017-11-27T22:49:47.666Z,2.20
2017-11-27T22:52:19.618Z,2.10
2017-11-27T22:54:50.567Z,2.10
2017-11-27T22:57:22.786Z,1.90
2017-11-27T22:59:54.370Z,1.60
2017-11-27T23:02:25.897Z,1.90
2017-11-27T23:04:59.826Z,1.70
2017-11-27T23:07:30.787Z,2.23
2017-11-27T23:10:02.220Z,1.57
2017-11-27T23:12:32.722Z,1.40
2017-11-27T23:15:03.650Z,1.53
2017-11-27T23:17:35.114Z,1.60
2017-11-27T23:20:05.991Z,1.70
2017-11-27T23:22:38.133Z,1.67
2017-11-27T23:25:09.857Z,1.70
2017-11-27T23:27:40.671Z,1.37
2017-11-27T23:30:14.358Z,1.60
2017-11-27T23:32:50.596Z,1.40
2017-11-27T23:35:22.033Z,1.30
2017-11-27T23:37:53.490Z,1.50
2017-11-27T23:40:24.545Z,1.30
2017-11-27T23:42:56.819Z,1.70
2017-11-27T23:45:28.965Z,1.50
2017-11-27T23:47:59.931Z,1.57
2017-11-27T23:50:40.861Z,1.83
2017-11-27T23:53:13.124Z,2.20
2017-11-27T23:55:45.037Z,2.03
2017-11-27T23:58:17.340Z,2.10
